sensor_id;sensor_type;location;lat;lon;timestamp;temperature;humidity
44851;DHT22;30583;48.714;9.386;2023-03-19T00:01:12;11.50;66.70
44851;DHT22;30583;48.714;9.386;2023-03-19T00:03:38;11.60;66.50
44851;DHT22;30583;48.714;9.386;2023-03-19T00:06:04;11.60;66.40
44851;DHT22;30583;48.714;9.386;2023-03-19T00:08:29;11.60;66.40
44851;DHT22;30583;48.714;9.386;2023-03-19T00:10:55;11.60;66.50
44851;DHT22;30583;48.714;9.386;2023-03-19T00:13:21;11.40;66.90
44851;DHT22;30583;48.714;9.386;2023-03-19T00:15:46;11.40;66.90
44851;DHT22;30583;48.714;9.386;2023-03-19T00:18:12;11.20;67.40
44851;DHT22;30583;48.714;9.386;2023-03-19T00:20:38;11.00;68.30
44851;DHT22;30583;48.714;9.386;2023-03-19T00:23:04;11.30;67.80
44851;DHT22;30583;48.714;9.386;2023-03-19T00:25:29;11.40;67.50
44851;DHT22;30583;48.714;9.386;2023-03-19T00:27:55;11.40;67.30
44851;DHT22;30583;48.714;9.386;2023-03-19T00:30:21;11.40;67.40
44851;DHT22;30583;48.714;9.386;2023-03-19T00:32:47;11.60;66.80
44851;DHT22;30583;48.714;9.386;2023-03-19T00:35:13;11.20;67.80
44851;DHT22;30583;48.714;9.386;2023-03-19T00:37:39;11.40;67.40
44851;DHT22;30583;48.714;9.386;2023-03-19T00:40:05;11.30;67.80
44851;DHT22;30583;48.714;9.386;2023-03-19T00:42:32;11.70;67.20
44851;DHT22;30583;48.714;9.386;2023-03-19T00:44:57;11.50;67.40
44851;DHT22;30583;48.714;9.386;2023-03-19T00:47:24;11.60;67.50
44851;DHT22;30583;48.714;9.386;2023-03-19T00:49:50;11.60;67.20
44851;DHT22;30583;48.714;9.386;2023-03-19T00:52:15;11.50;67.50
44851;DHT22;30583;48.714;9.386;2023-03-19T00:54:41;11.50;67.80
44851;DHT22;30583;48.714;9.386;2023-03-19T00:57:07;11.40;68.00
44851;DHT22;30583;48.714;9.386;2023-03-19T00:59:32;11.20;68.50
44851;DHT22;30583;48.714;9.386;2023-03-19T01:01:58;11.60;68.10
44851;DHT22;30583;48.714;9.386;2023-03-19T01:04:24;11.50;68.10
44851;DHT22;30583;48.714;9.386;2023-03-19T01:06:50;11.30;68.50
44851;DHT22;30583;48.714;9.386;2023-03-19T01:09:16;11.30;68.60
44851;DHT22;30583;48.714;9.386;2023-03-19T01:11:41;11.50;68.40
44851;DHT22;30583;48.714;9.386;2023-03-19T01:14:07;11.40;68.70
44851;DHT22;30583;48.714;9.386;2023-03-19T01:16:33;11.40;68.70
44851;DHT22;30583;48.714;9.386;2023-03-19T01:18:59;11.40;68.60
44851;DHT22;30583;48.714;9.386;2023-03-19T01:21:25;11.20;69.10
44851;DHT22;30583;48.714;9.386;2023-03-19T01:23:55;11.20;69.10
44851;DHT22;30583;48.714;9.386;2023-03-19T01:26:21;11.20;69.30
44851;DHT22;30583;48.714;9.386;2023-03-19T01:28:47;11.50;69.00
44851;DHT22;30583;48.714;9.386;2023-03-19T01:31:12;11.60;69.10
44851;DHT22;30583;48.714;9.386;2023-03-19T01:33:38;11.60;68.90
44851;DHT22;30583;48.714;9.386;2023-03-19T01:36:04;11.40;69.40
44851;DHT22;30583;48.714;9.386;2023-03-19T01:38:30;11.40;69.50
44851;DHT22;30583;48.714;9.386;2023-03-19T01:40:56;11.60;68.50
44851;DHT22;30583;48.714;9.386;2023-03-19T01:43:27;11.50;69.20
44851;DHT22;30583;48.714;9.386;2023-03-19T01:46:03;11.70;68.30
44851;DHT22;30583;48.714;9.386;2023-03-19T01:48:41;11.60;68.40
44851;DHT22;30583;48.714;9.386;2023-03-19T01:51:10;11.60;68.30
44851;DHT22;30583;48.714;9.386;2023-03-19T01:53:39;11.30;68.60
44851;DHT22;30583;48.714;9.386;2023-03-19T01:56:42;11.20;69.10
44851;DHT22;30583;48.714;9.386;2023-03-19T02:01:45;11.40;68.00
44851;DHT22;30583;48.714;9.386;2023-03-19T02:04:12;11.50;67.80
44851;DHT22;30583;48.714;9.386;2023-03-19T02:06:38;11.60;67.50
44851;DHT22;30583;48.714;9.386;2023-03-19T02:09:05;11.40;68.00
44851;DHT22;30583;48.714;9.386;2023-03-19T02:11:31;11.40;67.80
44851;DHT22;30583;48.714;9.386;2023-03-19T02:13:57;11.10;68.40
44851;DHT22;30583;48.714;9.386;2023-03-19T02:16:22;11.10;69.10
44851;DHT22;30583;48.714;9.386;2023-03-19T02:18:48;11.10;69.20
44851;DHT22;30583;48.714;9.386;2023-03-19T02:21:16;11.20;68.60
44851;DHT22;30583;48.714;9.386;2023-03-19T02:26:23;11.20;68.90
44851;DHT22;30583;48.714;9.386;2023-03-19T02:28:51;10.90;69.70
44851;DHT22;30583;48.714;9.386;2023-03-19T02:31:17;10.60;71.30
44851;DHT22;30583;48.714;9.386;2023-03-19T02:33:43;11.20;69.80
44851;DHT22;30583;48.714;9.386;2023-03-19T02:36:14;11.30;69.20
44851;DHT22;30583;48.714;9.386;2023-03-19T02:38:41;11.30;68.90
44851;DHT22;30583;48.714;9.386;2023-03-19T02:41:08;11.40;69.10
44851;DHT22;30583;48.714;9.386;2023-03-19T02:43:37;11.30;69.30
44851;DHT22;30583;48.714;9.386;2023-03-19T02:46:05;11.10;70.80
44851;DHT22;30583;48.714;9.386;2023-03-19T02:48:31;11.20;70.70
44851;DHT22;30583;48.714;9.386;2023-03-19T02:50:58;10.80;72.20
44851;DHT22;30583;48.714;9.386;2023-03-19T02:53:23;11.00;72.30
44851;DHT22;30583;48.714;9.386;2023-03-19T02:55:49;11.40;71.50
44851;DHT22;30583;48.714;9.386;2023-03-19T02:58:15;11.20;71.80
44851;DHT22;30583;48.714;9.386;2023-03-19T03:00:41;11.30;71.60
44851;DHT22;30583;48.714;9.386;2023-03-19T03:03:07;11.10;72.00
44851;DHT22;30583;48.714;9.386;2023-03-19T03:05:33;11.30;71.70
44851;DHT22;30583;48.714;9.386;2023-03-19T03:07:59;11.40;71.80
44851;DHT22;30583;48.714;9.386;2023-03-19T03:10:25;11.20;71.50
44851;DHT22;30583;48.714;9.386;2023-03-19T03:12:51;11.40;70.80
44851;DHT22;30583;48.714;9.386;2023-03-19T03:15:17;11.40;70.90
44851;DHT22;30583;48.714;9.386;2023-03-19T03:17:44;11.50;70.30
44851;DHT22;30583;48.714;9.386;2023-03-19T03:20:11;11.50;70.30
44851;DHT22;30583;48.714;9.386;2023-03-19T03:22:37;11.50;71.00
44851;DHT22;30583;48.714;9.386;2023-03-19T03:25:04;11.40;71.00
44851;DHT22;30583;48.714;9.386;2023-03-19T03:27:30;11.40;72.50
44851;DHT22;30583;48.714;9.386;2023-03-19T03:29:56;10.90;74.50
44851;DHT22;30583;48.714;9.386;2023-03-19T03:32:22;10.90;74.80
44851;DHT22;30583;48.714;9.386;2023-03-19T03:34:48;11.00;74.70
44851;DHT22;30583;48.714;9.386;2023-03-19T03:37:14;10.90;75.30
44851;DHT22;30583;48.714;9.386;2023-03-19T03:39:40;10.60;76.20
44851;DHT22;30583;48.714;9.386;2023-03-19T03:42:06;10.70;76.20
44851;DHT22;30583;48.714;9.386;2023-03-19T03:44:32;10.40;76.60
44851;DHT22;30583;48.714;9.386;2023-03-19T03:46:57;10.60;76.90
44851;DHT22;30583;48.714;9.386;2023-03-19T03:49:23;10.60;76.80
44851;DHT22;30583;48.714;9.386;2023-03-19T03:51:49;10.70;76.30
44851;DHT22;30583;48.714;9.386;2023-03-19T03:54:15;11.00;76.20
44851;DHT22;30583;48.714;9.386;2023-03-19T03:56:40;11.00;76.10
44851;DHT22;30583;48.714;9.386;2023-03-19T03:59:06;11.00;76.30
44851;DHT22;30583;48.714;9.386;2023-03-19T04:01:32;11.00;77.10
44851;DHT22;30583;48.714;9.386;2023-03-19T04:03:58;10.60;77.80
44851;DHT22;30583;48.714;9.386;2023-03-19T04:06:24;10.50;77.40
44851;DHT22;30583;48.714;9.386;2023-03-19T04:08:51;9.90;78.40
44851;DHT22;30583;48.714;9.386;2023-03-19T04:11:17;9.80;78.80
44851;DHT22;30583;48.714;9.386;2023-03-19T04:13:42;10.30;77.80
44851;DHT22;30583;48.714;9.386;2023-03-19T04:16:09;10.30;76.30
44851;DHT22;30583;48.714;9.386;2023-03-19T04:18:36;10.80;75.20
44851;DHT22;30583;48.714;9.386;2023-03-19T04:21:04;10.60;74.50
44851;DHT22;30583;48.714;9.386;2023-03-19T04:23:29;10.80;74.90
44851;DHT22;30583;48.714;9.386;2023-03-19T04:26:03;11.00;74.40
44851;DHT22;30583;48.714;9.386;2023-03-19T04:28:30;10.80;74.80
44851;DHT22;30583;48.714;9.386;2023-03-19T04:31:04;10.80;74.70
44851;DHT22;30583;48.714;9.386;2023-03-19T04:33:30;10.60;75.20
44851;DHT22;30583;48.714;9.386;2023-03-19T04:35:56;10.70;74.80
44851;DHT22;30583;48.714;9.386;2023-03-19T04:38:22;10.60;75.20
44851;DHT22;30583;48.714;9.386;2023-03-19T04:40:50;10.40;75.20
44851;DHT22;30583;48.714;9.386;2023-03-19T04:43:16;10.40;75.80
44851;DHT22;30583;48.714;9.386;2023-03-19T04:45:41;10.80;75.40
44851;DHT22;30583;48.714;9.386;2023-03-19T04:48:07;11.00;75.40
44851;DHT22;30583;48.714;9.386;2023-03-19T04:50:33;11.00;75.60
44851;DHT22;30583;48.714;9.386;2023-03-19T04:52:59;10.90;76.10
44851;DHT22;30583;48.714;9.386;2023-03-19T04:55:24;10.90;76.30
44851;DHT22;30583;48.714;9.386;2023-03-19T04:57:50;11.00;76.10
44851;DHT22;30583;48.714;9.386;2023-03-19T05:00:16;10.90;76.30
44851;DHT22;30583;48.714;9.386;2023-03-19T05:02:42;11.10;75.90
44851;DHT22;30583;48.714;9.386;2023-03-19T05:05:09;10.70;75.40
44851;DHT22;30583;48.714;9.386;2023-03-19T05:07:36;10.80;75.90
44851;DHT22;30583;48.714;9.386;2023-03-19T05:10:03;10.80;76.00
44851;DHT22;30583;48.714;9.386;2023-03-19T05:12:28;10.90;75.70
44851;DHT22;30583;48.714;9.386;2023-03-19T05:14:54;10.80;76.50
44851;DHT22;30583;48.714;9.386;2023-03-19T05:17:19;10.90;76.80
44851;DHT22;30583;48.714;9.386;2023-03-19T05:19:45;11.10;77.30
44851;DHT22;30583;48.714;9.386;2023-03-19T05:22:10;11.00;77.10
44851;DHT22;30583;48.714;9.386;2023-03-19T05:24:36;10.80;78.00
44851;DHT22;30583;48.714;9.386;2023-03-19T05:27:03;10.70;78.60
44851;DHT22;30583;48.714;9.386;2023-03-19T05:29:28;10.70;78.90
44851;DHT22;30583;48.714;9.386;2023-03-19T05:31:54;10.80;78.70
44851;DHT22;30583;48.714;9.386;2023-03-19T05:34:20;10.80;78.50
44851;DHT22;30583;48.714;9.386;2023-03-19T05:36:46;10.70;78.80
44851;DHT22;30583;48.714;9.386;2023-03-19T05:39:11;10.80;78.10
44851;DHT22;30583;48.714;9.386;2023-03-19T05:41:37;11.00;78.00
44851;DHT22;30583;48.714;9.386;2023-03-19T05:44:03;10.70;78.30
44851;DHT22;30583;48.714;9.386;2023-03-19T05:46:29;10.50;79.10
44851;DHT22;30583;48.714;9.386;2023-03-19T05:48:54;10.50;79.30
44851;DHT22;30583;48.714;9.386;2023-03-19T05:51:20;10.60;79.30
44851;DHT22;30583;48.714;9.386;2023-03-19T05:53:46;10.70;78.70
44851;DHT22;30583;48.714;9.386;2023-03-19T05:56:11;10.70;79.10
44851;DHT22;30583;48.714;9.386;2023-03-19T05:58:37;10.60;79.10
44851;DHT22;30583;48.714;9.386;2023-03-19T06:01:02;10.50;79.10
44851;DHT22;30583;48.714;9.386;2023-03-19T06:03:28;10.40;79.70
44851;DHT22;30583;48.714;9.386;2023-03-19T06:05:54;10.50;79.40
44851;DHT22;30583;48.714;9.386;2023-03-19T06:08:19;10.50;79.70
44851;DHT22;30583;48.714;9.386;2023-03-19T06:10:45;10.40;80.20
44851;DHT22;30583;48.714;9.386;2023-03-19T06:13:11;10.40;79.80
44851;DHT22;30583;48.714;9.386;2023-03-19T06:15:37;10.30;80.00
44851;DHT22;30583;48.714;9.386;2023-03-19T06:18:03;10.60;79.50
44851;DHT22;30583;48.714;9.386;2023-03-19T06:20:29;10.80;78.70
44851;DHT22;30583;48.714;9.386;2023-03-19T06:22:55;10.80;78.70
44851;DHT22;30583;48.714;9.386;2023-03-19T06:25:20;10.90;78.50
44851;DHT22;30583;48.714;9.386;2023-03-19T06:27:46;11.10;78.40
44851;DHT22;30583;48.714;9.386;2023-03-19T06:30:12;11.40;77.00
44851;DHT22;30583;48.714;9.386;2023-03-19T06:32:38;11.40;77.10
44851;DHT22;30583;48.714;9.386;2023-03-19T06:35:04;11.30;76.60
44851;DHT22;30583;48.714;9.386;2023-03-19T06:37:31;11.40;76.10
44851;DHT22;30583;48.714;9.386;2023-03-19T06:39:56;11.20;76.80
44851;DHT22;30583;48.714;9.386;2023-03-19T06:42:22;11.40;76.30
44851;DHT22;30583;48.714;9.386;2023-03-19T06:44:48;10.90;77.20
44851;DHT22;30583;48.714;9.386;2023-03-19T06:47:14;10.90;78.20
44851;DHT22;30583;48.714;9.386;2023-03-19T06:49:40;11.30;77.80
44851;DHT22;30583;48.714;9.386;2023-03-19T06:52:06;11.30;77.40
44851;DHT22;30583;48.714;9.386;2023-03-19T06:54:31;11.60;76.70
44851;DHT22;30583;48.714;9.386;2023-03-19T06:56:57;11.20;77.60
44851;DHT22;30583;48.714;9.386;2023-03-19T06:59:23;11.10;78.30
44851;DHT22;30583;48.714;9.386;2023-03-19T07:01:49;11.10;78.60
44851;DHT22;30583;48.714;9.386;2023-03-19T07:04:15;11.00;78.70
44851;DHT22;30583;48.714;9.386;2023-03-19T07:06:40;11.20;78.60
44851;DHT22;30583;48.714;9.386;2023-03-19T07:09:06;11.40;77.70
44851;DHT22;30583;48.714;9.386;2023-03-19T07:11:32;11.40;77.50
44851;DHT22;30583;48.714;9.386;2023-03-19T07:13:57;11.50;77.20
44851;DHT22;30583;48.714;9.386;2023-03-19T07:16:23;11.30;78.10
44851;DHT22;30583;48.714;9.386;2023-03-19T07:18:49;11.20;78.60
44851;DHT22;30583;48.714;9.386;2023-03-19T07:21:14;11.40;78.20
44851;DHT22;30583;48.714;9.386;2023-03-19T07:23:40;11.70;78.00
44851;DHT22;30583;48.714;9.386;2023-03-19T07:26:06;11.70;78.20
44851;DHT22;30583;48.714;9.386;2023-03-19T07:28:32;11.60;78.30
44851;DHT22;30583;48.714;9.386;2023-03-19T07:30:57;11.30;79.50
44851;DHT22;30583;48.714;9.386;2023-03-19T07:33:23;11.50;79.20
44851;DHT22;30583;48.714;9.386;2023-03-19T07:35:48;11.50;78.90
44851;DHT22;30583;48.714;9.386;2023-03-19T07:38:14;11.60;78.90
44851;DHT22;30583;48.714;9.386;2023-03-19T07:40:40;11.50;78.90
44851;DHT22;30583;48.714;9.386;2023-03-19T07:43:05;11.20;79.50
44851;DHT22;30583;48.714;9.386;2023-03-19T07:45:31;11.20;79.40
44851;DHT22;30583;48.714;9.386;2023-03-19T07:47:57;11.10;79.90
44851;DHT22;30583;48.714;9.386;2023-03-19T07:50:22;10.90;80.30
44851;DHT22;30583;48.714;9.386;2023-03-19T07:52:48;11.00;80.60
44851;DHT22;30583;48.714;9.386;2023-03-19T07:55:16;11.20;79.90
44851;DHT22;30583;48.714;9.386;2023-03-19T07:57:41;11.50;79.00
44851;DHT22;30583;48.714;9.386;2023-03-19T08:00:08;11.80;78.30
44851;DHT22;30583;48.714;9.386;2023-03-19T08:02:35;11.70;78.30
44851;DHT22;30583;48.714;9.386;2023-03-19T08:05:00;11.80;77.60
44851;DHT22;30583;48.714;9.386;2023-03-19T08:07:32;11.50;78.10
44851;DHT22;30583;48.714;9.386;2023-03-19T08:09:57;11.70;77.60
44851;DHT22;30583;48.714;9.386;2023-03-19T08:12:24;11.60;78.60
44851;DHT22;30583;48.714;9.386;2023-03-19T08:14:50;11.80;77.90
44851;DHT22;30583;48.714;9.386;2023-03-19T08:17:15;12.20;77.10
44851;DHT22;30583;48.714;9.386;2023-03-19T08:19:41;11.90;77.40
44851;DHT22;30583;48.714;9.386;2023-03-19T08:22:07;12.40;76.60
44851;DHT22;30583;48.714;9.386;2023-03-19T08:24:33;12.70;75.50
44851;DHT22;30583;48.714;9.386;2023-03-19T08:26:59;12.70;76.00
44851;DHT22;30583;48.714;9.386;2023-03-19T08:29:25;12.80;74.30
44851;DHT22;30583;48.714;9.386;2023-03-19T08:31:54;12.70;75.50
44851;DHT22;30583;48.714;9.386;2023-03-19T08:34:21;12.40;75.90
44851;DHT22;30583;48.714;9.386;2023-03-19T08:36:47;12.10;76.60
44851;DHT22;30583;48.714;9.386;2023-03-19T08:39:13;12.10;77.00
44851;DHT22;30583;48.714;9.386;2023-03-19T08:41:38;12.20;77.00
44851;DHT22;30583;48.714;9.386;2023-03-19T08:44:04;11.90;77.20
44851;DHT22;30583;48.714;9.386;2023-03-19T08:46:30;11.90;77.50
44851;DHT22;30583;48.714;9.386;2023-03-19T08:48:55;12.10;77.50
44851;DHT22;30583;48.714;9.386;2023-03-19T08:51:21;12.20;77.00
44851;DHT22;30583;48.714;9.386;2023-03-19T08:53:50;12.30;77.00
44851;DHT22;30583;48.714;9.386;2023-03-19T08:56:16;14.20;73.80
44851;DHT22;30583;48.714;9.386;2023-03-19T08:58:41;16.30;66.00
44851;DHT22;30583;48.714;9.386;2023-03-19T09:01:12;16.90;60.80
44851;DHT22;30583;48.714;9.386;2023-03-19T09:03:39;17.00;61.70
44851;DHT22;30583;48.714;9.386;2023-03-19T09:06:08;17.10;60.90
44851;DHT22;30583;48.714;9.386;2023-03-19T09:08:35;15.60;63.80
44851;DHT22;30583;48.714;9.386;2023-03-19T09:11:01;14.30;69.90
44851;DHT22;30583;48.714;9.386;2023-03-19T09:13:27;14.10;70.00
44851;DHT22;30583;48.714;9.386;2023-03-19T09:15:53;14.40;70.20
44851;DHT22;30583;48.714;9.386;2023-03-19T09:18:19;14.30;70.40
44851;DHT22;30583;48.714;9.386;2023-03-19T09:20:52;14.70;69.20
44851;DHT22;30583;48.714;9.386;2023-03-19T09:23:18;14.70;69.30
44851;DHT22;30583;48.714;9.386;2023-03-19T09:25:44;14.10;70.10
44851;DHT22;30583;48.714;9.386;2023-03-19T09:28:10;14.00;72.20
44851;DHT22;30583;48.714;9.386;2023-03-19T09:30:36;14.20;69.90
44851;DHT22;30583;48.714;9.386;2023-03-19T09:33:03;14.20;70.90
44851;DHT22;30583;48.714;9.386;2023-03-19T09:35:29;14.50;70.90
44851;DHT22;30583;48.714;9.386;2023-03-19T09:37:59;14.70;70.40
44851;DHT22;30583;48.714;9.386;2023-03-19T09:40:35;14.90;70.50
44851;DHT22;30583;48.714;9.386;2023-03-19T09:45:39;15.20;69.00
44851;DHT22;30583;48.714;9.386;2023-03-19T09:48:13;15.50;68.10
44851;DHT22;30583;48.714;9.386;2023-03-19T09:50:40;15.70;67.40
44851;DHT22;30583;48.714;9.386;2023-03-19T09:55:52;16.20;64.80
44851;DHT22;30583;48.714;9.386;2023-03-19T09:58:32;16.50;62.30
44851;DHT22;30583;48.714;9.386;2023-03-19T10:00:58;16.70;61.40
44851;DHT22;30583;48.714;9.386;2023-03-19T10:06:27;17.30;60.70
44851;DHT22;30583;48.714;9.386;2023-03-19T10:09:27;17.40;59.10
44851;DHT22;30583;48.714;9.386;2023-03-19T10:15:27;17.80;56.40
44851;DHT22;30583;48.714;9.386;2023-03-19T10:17:56;18.30;55.60
44851;DHT22;30583;48.714;9.386;2023-03-19T10:20:29;18.10;54.80
44851;DHT22;30583;48.714;9.386;2023-03-19T10:23:09;18.00;54.50
44851;DHT22;30583;48.714;9.386;2023-03-19T10:25:38;17.70;55.10
44851;DHT22;30583;48.714;9.386;2023-03-19T10:28:14;18.20;55.20
44851;DHT22;30583;48.714;9.386;2023-03-19T10:30:41;18.60;52.70
44851;DHT22;30583;48.714;9.386;2023-03-19T10:35:43;18.40;48.40
44851;DHT22;30583;48.714;9.386;2023-03-19T10:38:20;18.30;48.10
44851;DHT22;30583;48.714;9.386;2023-03-19T10:43:36;18.10;47.20
44851;DHT22;30583;48.714;9.386;2023-03-19T10:46:02;18.20;46.30
44851;DHT22;30583;48.714;9.386;2023-03-19T10:48:28;17.70;48.00
44851;DHT22;30583;48.714;9.386;2023-03-19T10:51:00;18.20;47.70
44851;DHT22;30583;48.714;9.386;2023-03-19T10:53:36;18.00;47.20
44851;DHT22;30583;48.714;9.386;2023-03-19T10:56:06;18.10;45.80
44851;DHT22;30583;48.714;9.386;2023-03-19T10:58:39;18.30;46.80
44851;DHT22;30583;48.714;9.386;2023-03-19T11:03:39;17.80;46.50
44851;DHT22;30583;48.714;9.386;2023-03-19T11:06:15;18.20;46.90
44851;DHT22;30583;48.714;9.386;2023-03-19T11:08:42;18.40;47.40
44851;DHT22;30583;48.714;9.386;2023-03-19T11:11:30;18.10;45.40
44851;DHT22;30583;48.714;9.386;2023-03-19T11:13:57;18.00;46.30
44851;DHT22;30583;48.714;9.386;2023-03-19T11:16:23;17.80;44.90
44851;DHT22;30583;48.714;9.386;2023-03-19T11:18:48;18.20;45.80
44851;DHT22;30583;48.714;9.386;2023-03-19T11:21:24;18.80;44.00
44851;DHT22;30583;48.714;9.386;2023-03-19T11:23:57;18.50;43.90
44851;DHT22;30583;48.714;9.386;2023-03-19T11:26:23;17.90;44.70
44851;DHT22;30583;48.714;9.386;2023-03-19T11:28:53;17.70;44.40
44851;DHT22;30583;48.714;9.386;2023-03-19T11:36:55;17.40;44.30
44851;DHT22;30583;48.714;9.386;2023-03-19T11:45:06;18.30;44.00
44851;DHT22;30583;48.714;9.386;2023-03-19T11:50:39;18.60;42.10
44851;DHT22;30583;48.714;9.386;2023-03-19T11:56:16;19.10;43.30
44851;DHT22;30583;48.714;9.386;2023-03-19T12:12:24;19.20;42.70
44851;DHT22;30583;48.714;9.386;2023-03-19T12:17:45;19.20;42.10
44851;DHT22;30583;48.714;9.386;2023-03-19T12:20:39;19.20;40.90
44851;DHT22;30583;48.714;9.386;2023-03-19T12:23:26;18.70;41.90
44851;DHT22;30583;48.714;9.386;2023-03-19T12:26:00;18.70;40.90
44851;DHT22;30583;48.714;9.386;2023-03-19T12:34:30;18.90;40.80
44851;DHT22;30583;48.714;9.386;2023-03-19T12:37:41;18.70;40.90
44851;DHT22;30583;48.714;9.386;2023-03-19T12:40:12;18.20;41.80
44851;DHT22;30583;48.714;9.386;2023-03-19T12:42:39;18.20;42.30
44851;DHT22;30583;48.714;9.386;2023-03-19T12:45:31;18.10;43.50
44851;DHT22;30583;48.714;9.386;2023-03-19T12:48:11;18.20;43.30
44851;DHT22;30583;48.714;9.386;2023-03-19T12:50:42;19.00;42.90
44851;DHT22;30583;48.714;9.386;2023-03-19T12:53:30;19.20;41.30
44851;DHT22;30583;48.714;9.386;2023-03-19T12:56:05;19.20;40.40
44851;DHT22;30583;48.714;9.386;2023-03-19T12:59:00;20.00;41.00
44851;DHT22;30583;48.714;9.386;2023-03-19T13:01:32;19.60;40.20
44851;DHT22;30583;48.714;9.386;2023-03-19T13:04:22;20.50;39.20
44851;DHT22;30583;48.714;9.386;2023-03-19T13:06:54;19.70;39.30
44851;DHT22;30583;48.714;9.386;2023-03-19T13:09:37;19.20;40.60
44851;DHT22;30583;48.714;9.386;2023-03-19T13:12:12;18.60;41.70
44851;DHT22;30583;48.714;9.386;2023-03-19T13:22:56;18.90;42.50
44851;DHT22;30583;48.714;9.386;2023-03-19T13:25:31;19.20;42.20
44851;DHT22;30583;48.714;9.386;2023-03-19T13:27:57;19.40;43.10
44851;DHT22;30583;48.714;9.386;2023-03-19T13:30:23;19.40;42.10
44851;DHT22;30583;48.714;9.386;2023-03-19T13:40:41;18.70;42.60
44851;DHT22;30583;48.714;9.386;2023-03-19T13:54:11;18.10;45.80
44851;DHT22;30583;48.714;9.386;2023-03-19T13:59:32;17.50;48.50
44851;DHT22;30583;48.714;9.386;2023-03-19T14:01:59;17.70;47.40
44851;DHT22;30583;48.714;9.386;2023-03-19T14:04:36;17.50;48.00
44851;DHT22;30583;48.714;9.386;2023-03-19T14:07:26;17.30;48.60
44851;DHT22;30583;48.714;9.386;2023-03-19T14:12:30;17.20;48.60
44851;DHT22;30583;48.714;9.386;2023-03-19T14:15:02;17.10;50.20
44851;DHT22;30583;48.714;9.386;2023-03-19T14:17:38;17.10;49.80
44851;DHT22;30583;48.714;9.386;2023-03-19T14:23:01;17.10;48.70
44851;DHT22;30583;48.714;9.386;2023-03-19T14:25:27;16.90;48.90
44851;DHT22;30583;48.714;9.386;2023-03-19T14:28:16;17.10;49.40
44851;DHT22;30583;48.714;9.386;2023-03-19T14:30:47;16.80;49.70
44851;DHT22;30583;48.714;9.386;2023-03-19T14:33:27;16.90;49.20
44851;DHT22;30583;48.714;9.386;2023-03-19T14:35:55;17.20;49.20
44851;DHT22;30583;48.714;9.386;2023-03-19T14:38:34;17.20;49.30
44851;DHT22;30583;48.714;9.386;2023-03-19T14:41:03;17.20;49.50
44851;DHT22;30583;48.714;9.386;2023-03-19T14:49:57;16.70;50.70
44851;DHT22;30583;48.714;9.386;2023-03-19T14:52:33;16.70;49.80
44851;DHT22;30583;48.714;9.386;2023-03-19T14:55:07;16.70;49.40
44851;DHT22;30583;48.714;9.386;2023-03-19T14:57:34;16.70;49.30
44851;DHT22;30583;48.714;9.386;2023-03-19T15:00:01;16.70;48.60
44851;DHT22;30583;48.714;9.386;2023-03-19T15:02:48;16.70;49.10
44851;DHT22;30583;48.714;9.386;2023-03-19T15:05:21;16.60;49.70
44851;DHT22;30583;48.714;9.386;2023-03-19T15:07:51;16.20;50.90
44851;DHT22;30583;48.714;9.386;2023-03-19T15:10:19;16.50;50.60
44851;DHT22;30583;48.714;9.386;2023-03-19T15:13:17;16.60;50.10
44851;DHT22;30583;48.714;9.386;2023-03-19T15:18:37;15.80;55.60
44851;DHT22;30583;48.714;9.386;2023-03-19T15:21:03;15.30;58.10
44851;DHT22;30583;48.714;9.386;2023-03-19T15:23:30;15.00;60.80
44851;DHT22;30583;48.714;9.386;2023-03-19T15:26:01;15.10;60.50
44851;DHT22;30583;48.714;9.386;2023-03-19T15:28:30;15.10;61.00
44851;DHT22;30583;48.714;9.386;2023-03-19T15:31:02;15.00;61.20
44851;DHT22;30583;48.714;9.386;2023-03-19T15:33:34;15.50;60.10
44851;DHT22;30583;48.714;9.386;2023-03-19T15:36:22;15.40;58.60
44851;DHT22;30583;48.714;9.386;2023-03-19T15:39:04;15.20;58.10
44851;DHT22;30583;48.714;9.386;2023-03-19T15:41:33;14.80;56.40
44851;DHT22;30583;48.714;9.386;2023-03-19T15:44:01;14.60;59.60
44851;DHT22;30583;48.714;9.386;2023-03-19T15:46:33;14.60;58.70
44851;DHT22;30583;48.714;9.386;2023-03-19T15:49:22;14.20;60.20
44851;DHT22;30583;48.714;9.386;2023-03-19T15:51:52;14.90;59.20
44851;DHT22;30583;48.714;9.386;2023-03-19T15:54:20;15.30;58.70
44851;DHT22;30583;48.714;9.386;2023-03-19T15:56:48;15.00;60.80
44851;DHT22;30583;48.714;9.386;2023-03-19T15:59:16;15.10;61.10
44851;DHT22;30583;48.714;9.386;2023-03-19T16:01:42;15.10;62.00
44851;DHT22;30583;48.714;9.386;2023-03-19T16:04:15;14.80;62.90
44851;DHT22;30583;48.714;9.386;2023-03-19T16:06:47;15.00;63.00
44851;DHT22;30583;48.714;9.386;2023-03-19T16:09:31;15.10;63.70
44851;DHT22;30583;48.714;9.386;2023-03-19T16:11:58;15.10;64.30
44851;DHT22;30583;48.714;9.386;2023-03-19T16:14:41;14.80;64.70
44851;DHT22;30583;48.714;9.386;2023-03-19T16:17:15;15.00;64.20
44851;DHT22;30583;48.714;9.386;2023-03-19T16:19:52;14.70;64.60
44851;DHT22;30583;48.714;9.386;2023-03-19T16:22:30;14.30;65.80
44851;DHT22;30583;48.714;9.386;2023-03-19T16:24:56;14.30;66.30
44851;DHT22;30583;48.714;9.386;2023-03-19T16:27:37;14.60;65.60
44851;DHT22;30583;48.714;9.386;2023-03-19T16:32:38;15.70;61.20
44851;DHT22;30583;48.714;9.386;2023-03-19T16:35:15;15.70;61.30
44851;DHT22;30583;48.714;9.386;2023-03-19T16:37:48;15.80;61.50
44851;DHT22;30583;48.714;9.386;2023-03-19T16:40:34;15.60;61.90
44851;DHT22;30583;48.714;9.386;2023-03-19T16:43:06;15.80;61.50
44851;DHT22;30583;48.714;9.386;2023-03-19T16:45:32;14.90;62.90
44851;DHT22;30583;48.714;9.386;2023-03-19T16:48:00;14.60;63.80
44851;DHT22;30583;48.714;9.386;2023-03-19T16:50:40;14.50;64.30
44851;DHT22;30583;48.714;9.386;2023-03-19T16:53:20;14.30;64.40
44851;DHT22;30583;48.714;9.386;2023-03-19T16:55:47;14.60;63.80
44851;DHT22;30583;48.714;9.386;2023-03-19T16:58:15;14.60;64.30
44851;DHT22;30583;48.714;9.386;2023-03-19T17:00:42;14.40;64.70
44851;DHT22;30583;48.714;9.386;2023-03-19T17:03:14;14.30;64.90
44851;DHT22;30583;48.714;9.386;2023-03-19T17:05:41;14.40;63.90
44851;DHT22;30583;48.714;9.386;2023-03-19T17:08:06;14.30;64.70
44851;DHT22;30583;48.714;9.386;2023-03-19T17:10:34;13.70;68.50
44851;DHT22;30583;48.714;9.386;2023-03-19T17:13:00;13.40;69.60
44851;DHT22;30583;48.714;9.386;2023-03-19T17:15:37;14.00;68.40
44851;DHT22;30583;48.714;9.386;2023-03-19T17:18:18;14.20;67.10
44851;DHT22;30583;48.714;9.386;2023-03-19T17:20:57;14.10;66.40
44851;DHT22;30583;48.714;9.386;2023-03-19T17:23:25;14.20;66.60
44851;DHT22;30583;48.714;9.386;2023-03-19T17:25:55;14.30;65.90
44851;DHT22;30583;48.714;9.386;2023-03-19T17:28:20;14.10;66.10
44851;DHT22;30583;48.714;9.386;2023-03-19T17:30:46;14.10;66.30
44851;DHT22;30583;48.714;9.386;2023-03-19T17:33:26;14.10;66.30